sensor_id;sensor_type;location;lat;lon;timestamp;pressure;altitude;pressure_sealevel;temperature;humidity
41202;BME280;26936;50.524;8.684;2024-02-23T00:02:24;96858.84;;;9.36;71.72
41202;BME280;26936;50.524;8.684;2024-02-23T00:04:50;96873.41;;;9.35;72.93
41202;BME280;26936;50.524;8.684;2024-02-23T00:07:15;96889.47;;;9.29;73.27
41202;BME280;26936;50.524;8.684;2024-02-23T00:09:40;96883.06;;;9.28;69.72
41202;BME280;26936;50.524;8.684;2024-02-23T00:12:06;96901.22;;;9.27;69.80
41202;BME280;26936;50.524;8.684;2024-02-23T00:14:31;96899.38;;;9.19;68.58
41202;BME280;26936;50.524;8.684;2024-02-23T00:16:57;96900.38;;;9.16;68.36
41202;BME280;26936;50.524;8.684;2024-02-23T00:19:24;96917.50;;;9.18;69.92
41202;BME280;26936;50.524;8.684;2024-02-23T00:21:49;96934.31;;;9.12;69.47
41202;BME280;26936;50.524;8.684;2024-02-23T00:24:16;96935.09;;;9.13;68.96
41202;BME280;26936;50.524;8.684;2024-02-23T00:26:41;96939.41;;;9.08;68.96
41202;BME280;26936;50.524;8.684;2024-02-23T00:29:07;96956.69;;;9.01;66.50
41202;BME280;26936;50.524;8.684;2024-02-23T00:31:32;96948.28;;;9.01;66.99
41202;BME280;26936;50.524;8.684;2024-02-23T00:33:57;96925.31;;;9.03;68.69
41202;BME280;26936;50.524;8.684;2024-02-23T00:36:23;96939.06;;;8.95;68.42
41202;BME280;26936;50.524;8.684;2024-02-23T00:38:48;96948.94;;;8.85;68.57
41202;BME280;26936;50.524;8.684;2024-02-23T00:41:13;96971.91;;;8.84;68.87
41202;BME280;26936;50.524;8.684;2024-02-23T00:43:39;96977.44;;;8.73;69.37
41202;BME280;26936;50.524;8.684;2024-02-23T00:46:05;96973.13;;;8.77;69.72
41202;BME280;26936;50.524;8.684;2024-02-23T00:48:31;96974.94;;;8.80;70.89
41202;BME280;26936;50.524;8.684;2024-02-23T00:50:56;96981.72;;;8.68;71.56
41202;BME280;26936;50.524;8.684;2024-02-23T00:53:22;96987.81;;;8.67;70.84
41202;BME280;26936;50.524;8.684;2024-02-23T00:55:47;96983.97;;;8.64;71.31
41202;BME280;26936;50.524;8.684;2024-02-23T00:58:12;96997.72;;;8.62;70.02
41202;BME280;26936;50.524;8.684;2024-02-23T01:00:38;97010.31;;;8.72;70.12
41202;BME280;26936;50.524;8.684;2024-02-23T01:03:03;97007.19;;;8.65;70.95
41202;BME280;26936;50.524;8.684;2024-02-23T01:05:29;97012.03;;;8.64;71.22
41202;BME280;26936;50.524;8.684;2024-02-23T01:07:54;97010.72;;;8.60;69.80
41202;BME280;26936;50.524;8.684;2024-02-23T01:10:19;97027.28;;;8.58;70.15
41202;BME280;26936;50.524;8.684;2024-02-23T01:12:44;97005.84;;;8.55;69.85
41202;BME280;26936;50.524;8.684;2024-02-23T01:15:10;97013.16;;;8.47;69.57
41202;BME280;26936;50.524;8.684;2024-02-23T01:17:35;97021.72;;;8.38;68.87
41202;BME280;26936;50.524;8.684;2024-02-23T01:20:00;97017.53;;;8.27;69.01
41202;BME280;26936;50.524;8.684;2024-02-23T01:22:26;97034.84;;;8.26;69.78
41202;BME280;26936;50.524;8.684;2024-02-23T01:24:51;97024.81;;;8.19;69.95
41202;BME280;26936;50.524;8.684;2024-02-23T01:27:16;97045.59;;;8.07;69.44
41202;BME280;26936;50.524;8.684;2024-02-23T01:29:41;97023.94;;;8.08;70.09
41202;BME280;26936;50.524;8.684;2024-02-23T01:32:07;97028.72;;;8.02;70.39
41202;BME280;26936;50.524;8.684;2024-02-23T01:34:32;97032.09;;;7.86;70.52
41202;BME280;26936;50.524;8.684;2024-02-23T01:36:58;97041.13;;;7.75;70.72
41202;BME280;26936;50.524;8.684;2024-02-23T01:39:24;97045.31;;;7.65;71.90
41202;BME280;26936;50.524;8.684;2024-02-23T01:41:49;97040.41;;;7.60;71.31
41202;BME280;26936;50.524;8.684;2024-02-23T01:44:15;97045.81;;;7.44;72.62
41202;BME280;26936;50.524;8.684;2024-02-23T01:46:42;97045.09;;;7.49;73.54
41202;BME280;26936;50.524;8.684;2024-02-23T01:49:07;97051.31;;;7.38;74.04
41202;BME280;26936;50.524;8.684;2024-02-23T01:51:33;97052.00;;;7.33;74.19
41202;BME280;26936;50.524;8.684;2024-02-23T01:53:59;97050.91;;;7.11;75.48
41202;BME280;26936;50.524;8.684;2024-02-23T01:56:25;97060.53;;;7.24;75.55
41202;BME280;26936;50.524;8.684;2024-02-23T01:58:51;97073.66;;;7.18;75.37
41202;BME280;26936;50.524;8.684;2024-02-23T02:01:17;97104.44;;;7.18;75.69
41202;BME280;26936;50.524;8.684;2024-02-23T02:03:42;97087.44;;;7.22;76.27
41202;BME280;26936;50.524;8.684;2024-02-23T02:06:09;97103.94;;;7.20;76.70
41202;BME280;26936;50.524;8.684;2024-02-23T02:08:35;97112.09;;;7.18;77.57
41202;BME280;26936;50.524;8.684;2024-02-23T02:11:01;97110.16;;;7.09;79.30
41202;BME280;26936;50.524;8.684;2024-02-23T02:13:30;97133.59;;;7.12;79.50
41202;BME280;26936;50.524;8.684;2024-02-23T02:15:57;97110.34;;;7.06;79.98
41202;BME280;26936;50.524;8.684;2024-02-23T02:18:23;97123.75;;;7.02;79.50
41202;BME280;26936;50.524;8.684;2024-02-23T02:20:54;97107.75;;;7.02;79.42
41202;BME280;26936;50.524;8.684;2024-02-23T02:23:20;97130.25;;;6.93;79.71
41202;BME280;26936;50.524;8.684;2024-02-23T02:25:45;97143.94;;;6.91;80.67
41202;BME280;26936;50.524;8.684;2024-02-23T02:28:11;97132.63;;;6.85;80.92
41202;BME280;26936;50.524;8.684;2024-02-23T02:30:37;97131.66;;;6.74;81.31
41202;BME280;26936;50.524;8.684;2024-02-23T02:33:03;97141.44;;;6.78;80.40
41202;BME280;26936;50.524;8.684;2024-02-23T02:35:28;97150.75;;;6.75;80.58
41202;BME280;26936;50.524;8.684;2024-02-23T02:37:53;97148.75;;;6.76;80.36
41202;BME280;26936;50.524;8.684;2024-02-23T02:40:19;97155.22;;;6.82;80.75
41202;BME280;26936;50.524;8.684;2024-02-23T02:42:44;97156.47;;;6.81;80.35
41202;BME280;26936;50.524;8.684;2024-02-23T02:45:09;97157.91;;;6.76;80.36
41202;BME280;26936;50.524;8.684;2024-02-23T02:47:35;97169.97;;;6.82;80.17
41202;BME280;26936;50.524;8.684;2024-02-23T02:50:01;97170.63;;;6.77;79.34
41202;BME280;26936;50.524;8.684;2024-02-23T02:52:26;97156.34;;;6.75;80.35
41202;BME280;26936;50.524;8.684;2024-02-23T02:54:53;97174.88;;;6.73;78.97
41202;BME280;26936;50.524;8.684;2024-02-23T02:57:19;97170.91;;;6.65;79.34
41202;BME280;26936;50.524;8.684;2024-02-23T02:59:44;97181.75;;;6.72;79.25
41202;BME280;26936;50.524;8.684;2024-02-23T03:02:11;97189.34;;;6.71;79.50
41202;BME280;26936;50.524;8.684;2024-02-23T03:04:36;97191.19;;;6.74;79.34
41202;BME280;26936;50.524;8.684;2024-02-23T03:07:01;97189.72;;;6.64;78.49
41202;BME280;26936;50.524;8.684;2024-02-23T03:09:26;97196.88;;;6.65;78.80
41202;BME280;26936;50.524;8.684;2024-02-23T03:11:52;97198.09;;;6.64;78.51
41202;BME280;26936;50.524;8.684;2024-02-23T03:14:17;97184.31;;;6.61;78.83
41202;BME280;26936;50.524;8.684;2024-02-23T03:16:43;97194.81;;;6.51;78.85
41202;BME280;26936;50.524;8.684;2024-02-23T03:19:08;97195.56;;;6.52;79.02
41202;BME280;26936;50.524;8.684;2024-02-23T03:21:34;97197.59;;;6.51;78.47
41202;BME280;26936;50.524;8.684;2024-02-23T03:23:59;97192.31;;;6.53;78.16
41202;BME280;26936;50.524;8.684;2024-02-23T03:26:24;97186.22;;;6.55;77.65
41202;BME280;26936;50.524;8.684;2024-02-23T03:28:49;97190.00;;;6.52;78.24
41202;BME280;26936;50.524;8.684;2024-02-23T03:31:15;97196.72;;;6.45;78.37
41202;BME280;26936;50.524;8.684;2024-02-23T03:33:40;97202.63;;;6.47;78.25
41202;BME280;26936;50.524;8.684;2024-02-23T03:36:05;97203.19;;;6.51;78.10
41202;BME280;26936;50.524;8.684;2024-02-23T03:38:31;97199.03;;;6.47;76.97
41202;BME280;26936;50.524;8.684;2024-02-23T03:40:56;97210.41;;;6.43;76.49
41202;BME280;26936;50.524;8.684;2024-02-23T03:43:21;97214.44;;;6.42;76.65
41202;BME280;26936;50.524;8.684;2024-02-23T03:45:47;97217.34;;;6.48;76.45
41202;BME280;26936;50.524;8.684;2024-02-23T03:48:12;97200.97;;;6.41;76.37
41202;BME280;26936;50.524;8.684;2024-02-23T03:50:38;97217.72;;;6.41;76.16
41202;BME280;26936;50.524;8.684;2024-02-23T03:53:03;97208.38;;;6.44;76.15
41202;BME280;26936;50.524;8.684;2024-02-23T03:55:28;97208.22;;;6.47;76.24
41202;BME280;26936;50.524;8.684;2024-02-23T03:57:54;97206.06;;;6.42;76.29
41202;BME280;26936;50.524;8.684;2024-02-23T04:00:19;97208.56;;;6.40;76.60
41202;BME280;26936;50.524;8.684;2024-02-23T04:02:45;97215.69;;;6.41;76.14
41202;BME280;26936;50.524;8.684;2024-02-23T04:05:11;97220.94;;;6.48;76.49
41202;BME280;26936;50.524;8.684;2024-02-23T04:07:36;97226.22;;;6.46;75.74
41202;BME280;26936;50.524;8.684;2024-02-23T04:10:02;97227.94;;;6.44;75.70
41202;BME280;26936;50.524;8.684;2024-02-23T04:12:29;97232.75;;;6.43;75.01
41202;BME280;26936;50.524;8.684;2024-02-23T04:14:56;97235.38;;;6.47;75.21
41202;BME280;26936;50.524;8.684;2024-02-23T04:17:21;97232.75;;;6.43;75.01
41202;BME280;26936;50.524;8.684;2024-02-23T04:19:46;97245.69;;;6.41;74.70
41202;BME280;26936;50.524;8.684;2024-02-23T04:22:11;97242.72;;;6.44;74.62
41202;BME280;26936;50.524;8.684;2024-02-23T04:24:40;97245.06;;;6.37;75.23
41202;BME280;26936;50.524;8.684;2024-02-23T04:27:07;97253.78;;;6.39;74.20
41202;BME280;26936;50.524;8.684;2024-02-23T04:29:32;97256.09;;;6.40;74.39
41202;BME280;26936;50.524;8.684;2024-02-23T04:32:00;97257.94;;;6.43;74.08
41202;BME280;26936;50.524;8.684;2024-02-23T04:34:25;97271.13;;;6.43;74.35
41202;BME280;26936;50.524;8.684;2024-02-23T04:36:50;97279.81;;;6.45;74.09
41202;BME280;26936;50.524;8.684;2024-02-23T04:39:16;97274.22;;;6.45;73.64
41202;BME280;26936;50.524;8.684;2024-02-23T04:41:41;97275.31;;;6.47;73.52
41202;BME280;26936;50.524;8.684;2024-02-23T04:44:07;97270.13;;;6.55;73.54
41202;BME280;26936;50.524;8.684;2024-02-23T04:46:32;97270.13;;;6.55;73.42
41202;BME280;26936;50.524;8.684;2024-02-23T04:48:59;97271.19;;;6.57;73.22
41202;BME280;26936;50.524;8.684;2024-02-23T04:51:24;97270.50;;;6.62;72.80
41202;BME280;26936;50.524;8.684;2024-02-23T04:53:50;97273.03;;;6.60;73.53
41202;BME280;26936;50.524;8.684;2024-02-23T04:56:15;97279.22;;;6.64;73.69
41202;BME280;26936;50.524;8.684;2024-02-23T04:58:40;97283.75;;;6.62;73.58
41202;BME280;26936;50.524;8.684;2024-02-23T05:01:08;97280.78;;;6.65;73.60
41202;BME280;26936;50.524;8.684;2024-02-23T05:03:33;97283.19;;;6.72;73.30
41202;BME280;26936;50.524;8.684;2024-02-23T05:05:58;97279.03;;;6.68;73.03
41202;BME280;26936;50.524;8.684;2024-02-23T05:08:23;97284.72;;;6.59;73.48
41202;BME280;26936;50.524;8.684;2024-02-23T05:10:50;97288.03;;;6.72;73.50
41202;BME280;26936;50.524;8.684;2024-02-23T05:13:16;97290.09;;;6.62;73.87
41202;BME280;26936;50.524;8.684;2024-02-23T05:15:41;97297.97;;;6.73;73.67
41202;BME280;26936;50.524;8.684;2024-02-23T05:18:07;97299.50;;;6.74;73.80
41202;BME280;26936;50.524;8.684;2024-02-23T05:20:32;97292.06;;;6.71;73.67
41202;BME280;26936;50.524;8.684;2024-02-23T05:22:58;97286.94;;;6.69;72.61
41202;BME280;26936;50.524;8.684;2024-02-23T05:25:23;97290.94;;;6.77;73.06
41202;BME280;26936;50.524;8.684;2024-02-23T05:27:48;97302.28;;;6.74;73.67
41202;BME280;26936;50.524;8.684;2024-02-23T05:30:14;97303.25;;;6.71;73.10
41202;BME280;26936;50.524;8.684;2024-02-23T05:32:39;97307.13;;;6.73;73.52
41202;BME280;26936;50.524;8.684;2024-02-23T05:35:05;97304.34;;;6.73;72.94
41202;BME280;26936;50.524;8.684;2024-02-23T05:37:31;97301.88;;;6.66;72.63
41202;BME280;26936;50.524;8.684;2024-02-23T05:39:56;97299.41;;;6.68;72.55
41202;BME280;26936;50.524;8.684;2024-02-23T05:42:24;97292.44;;;6.64;71.58
41202;BME280;26936;50.524;8.684;2024-02-23T05:44:50;97306.03;;;6.71;71.76
41202;BME280;26936;50.524;8.684;2024-02-23T05:47:15;97291.59;;;6.72;72.49
41202;BME280;26936;50.524;8.684;2024-02-23T05:49:41;97299.69;;;6.70;74.09
41202;BME280;26936;50.524;8.684;2024-02-23T05:52:06;97290.41;;;6.64;75.48
41202;BME280;26936;50.524;8.684;2024-02-23T05:54:31;97286.16;;;6.69;75.50
41202;BME280;26936;50.524;8.684;2024-02-23T05:56:57;97289.53;;;6.58;76.64
41202;BME280;26936;50.524;8.684;2024-02-23T05:59:22;97292.66;;;6.51;77.91
41202;BME280;26936;50.524;8.684;2024-02-23T06:01:48;97287.84;;;6.52;77.55
41202;BME280;26936;50.524;8.684;2024-02-23T06:04:13;97288.81;;;6.49;77.44
41202;BME280;26936;50.524;8.684;2024-02-23T06:06:41;97292.63;;;6.60;76.24
41202;BME280;26936;50.524;8.684;2024-02-23T06:09:07;97298.69;;;6.59;77.12
41202;BME280;26936;50.524;8.684;2024-02-23T06:11:32;97304.16;;;6.53;78.04
41202;BME280;26936;50.524;8.684;2024-02-23T06:13:57;97306.66;;;6.51;78.14
41202;BME280;26936;50.524;8.684;2024-02-23T06:16:22;97314.28;;;6.51;78.01
41202;BME280;26936;50.524;8.684;2024-02-23T06:18:48;97307.59;;;6.48;77.19
41202;BME280;26936;50.524;8.684;2024-02-23T06:21:17;97306.34;;;6.49;77.14
41202;BME280;26936;50.524;8.684;2024-02-23T06:23:43;97311.75;;;6.53;75.88
41202;BME280;26936;50.524;8.684;2024-02-23T06:26:09;97312.38;;;6.57;75.71
41202;BME280;26936;50.524;8.684;2024-02-23T06:28:34;97307.13;;;6.50;76.06
41202;BME280;26936;50.524;8.684;2024-02-23T06:31:02;97311.28;;;6.54;75.86
41202;BME280;26936;50.524;8.684;2024-02-23T06:33:28;97322.59;;;6.60;76.28
41202;BME280;26936;50.524;8.684;2024-02-23T06:35:54;97312.84;;;6.55;78.03
41202;BME280;26936;50.524;8.684;2024-02-23T06:38:19;97317.19;;;6.56;80.62
41202;BME280;26936;50.524;8.684;2024-02-23T06:40:45;97325.03;;;6.43;82.96
41202;BME280;26936;50.524;8.684;2024-02-23T06:43:10;97333.97;;;6.56;82.11
41202;BME280;26936;50.524;8.684;2024-02-23T06:45:35;97334.59;;;6.51;82.75
41202;BME280;26936;50.524;8.684;2024-02-23T06:48:00;97339.66;;;6.38;83.70
41202;BME280;26936;50.524;8.684;2024-02-23T06:50:26;97341.75;;;6.52;82.72
41202;BME280;26936;50.524;8.684;2024-02-23T06:52:51;97344.84;;;6.54;82.42
41202;BME280;26936;50.524;8.684;2024-02-23T06:55:16;97347.53;;;6.49;83.75
41202;BME280;26936;50.524;8.684;2024-02-23T06:57:42;97345.69;;;6.46;84.45
41202;BME280;26936;50.524;8.684;2024-02-23T07:00:09;97344.28;;;6.41;84.50
41202;BME280;26936;50.524;8.684;2024-02-23T07:02:35;97356.09;;;6.45;85.16
41202;BME280;26936;50.524;8.684;2024-02-23T07:05:02;97352.19;;;6.43;85.04
41202;BME280;26936;50.524;8.684;2024-02-23T07:07:29;97352.09;;;6.37;86.03
41202;BME280;26936;50.524;8.684;2024-02-23T07:09:55;97357.69;;;6.37;86.98
41202;BME280;26936;50.524;8.684;2024-02-23T07:12:21;97374.63;;;6.34;87.35
41202;BME280;26936;50.524;8.684;2024-02-23T07:14:46;97380.69;;;6.32;87.13
41202;BME280;26936;50.524;8.684;2024-02-23T07:17:11;97363.03;;;6.26;87.56
41202;BME280;26936;50.524;8.684;2024-02-23T07:19:37;97379.25;;;6.37;87.31
41202;BME280;26936;50.524;8.684;2024-02-23T07:22:02;97372.72;;;6.40;87.00
41202;BME280;26936;50.524;8.684;2024-02-23T07:24:28;97378.19;;;6.34;87.40
41202;BME280;26936;50.524;8.684;2024-02-23T07:26:53;97385.59;;;6.46;86.55
41202;BME280;26936;50.524;8.684;2024-02-23T07:29:18;97373.19;;;6.38;86.66
41202;BME280;26936;50.524;8.684;2024-02-23T07:31:44;97379.81;;;6.50;86.60
41202;BME280;26936;50.524;8.684;2024-02-23T07:34:09;97375.59;;;6.54;85.36
41202;BME280;26936;50.524;8.684;2024-02-23T07:36:35;97381.50;;;6.56;84.74
41202;BME280;26936;50.524;8.684;2024-02-23T07:39:00;97375.00;;;6.50;84.06
41202;BME280;26936;50.524;8.684;2024-02-23T07:41:25;97383.56;;;6.47;84.47
41202;BME280;26936;50.524;8.684;2024-02-23T07:43:50;97374.28;;;6.41;85.27
41202;BME280;26936;50.524;8.684;2024-02-23T07:46:16;97377.19;;;6.46;85.42
41202;BME280;26936;50.524;8.684;2024-02-23T07:48:41;97372.69;;;6.49;84.90
41202;BME280;26936;50.524;8.684;2024-02-23T07:51:07;97386.75;;;6.63;84.64
41202;BME280;26936;50.524;8.684;2024-02-23T07:53:32;97389.06;;;6.65;84.65
41202;BME280;26936;50.524;8.684;2024-02-23T07:55:59;97384.97;;;6.75;83.84
41202;BME280;26936;50.524;8.684;2024-02-23T07:58:27;97379.69;;;6.77;84.14
41202;BME280;26936;50.524;8.684;2024-02-23T08:00:52;97408.19;;;6.90;84.08
41202;BME280;26936;50.524;8.684;2024-02-23T08:03:18;97403.66;;;6.93;83.80
41202;BME280;26936;50.524;8.684;2024-02-23T08:05:43;97408.19;;;6.90;82.79
41202;BME280;26936;50.524;8.684;2024-02-23T08:08:09;97403.81;;;6.98;83.48
41202;BME280;26936;50.524;8.684;2024-02-23T08:10:34;97416.84;;;7.01;83.00
41202;BME280;26936;50.524;8.684;2024-02-23T08:12:59;97420.69;;;7.04;83.61
41202;BME280;26936;50.524;8.684;2024-02-23T08:15:25;97413.38;;;7.06;82.82
41202;BME280;26936;50.524;8.684;2024-02-23T08:17:50;97413.56;;;7.03;81.92
41202;BME280;26936;50.524;8.684;2024-02-23T08:20:15;97420.66;;;7.13;81.88
41202;BME280;26936;50.524;8.684;2024-02-23T08:22:41;97426.25;;;7.13;81.23
41202;BME280;26936;50.524;8.684;2024-02-23T08:25:06;97426.47;;;7.24;81.67
41202;BME280;26936;50.524;8.684;2024-02-23T08:27:33;97418.84;;;7.24;81.90
41202;BME280;26936;50.524;8.684;2024-02-23T08:29:58;97429.97;;;7.33;82.28
41202;BME280;26936;50.524;8.684;2024-02-23T08:32:24;97422.88;;;7.47;81.60
41202;BME280;26936;50.524;8.684;2024-02-23T08:34:49;97422.47;;;7.54;81.04
41202;BME280;26936;50.524;8.684;2024-02-23T08:37:15;97415.91;;;7.42;81.55
41202;BME280;26936;50.524;8.684;2024-02-23T08:39:40;97418.75;;;7.57;81.85
41202;BME280;26936;50.524;8.684;2024-02-23T08:42:05;97421.94;;;7.64;80.85
41202;BME280;26936;50.524;8.684;2024-02-23T08:44:31;97425.22;;;7.63;80.65
41202;BME280;26936;50.524;8.684;2024-02-23T08:46:56;97425.09;;;7.57;80.78
41202;BME280;26936;50.524;8.684;2024-02-23T08:49:21;97430.63;;;7.66;80.33
41202;BME280;26936;50.524;8.684;2024-02-23T08:51:46;97439.69;;;7.47;80.12
41202;BME280;26936;50.524;8.684;2024-02-23T08:54:12;97443.00;;;7.60;80.34
41202;BME280;26936;50.524;8.684;2024-02-23T08:56:37;97448.41;;;7.63;80.63
41202;BME280;26936;50.524;8.684;2024-02-23T08:59:04;97448.59;;;7.60;80.56
41202;BME280;26936;50.524;8.684;2024-02-23T09:01:29;97442.38;;;7.56;80.46
41202;BME280;26936;50.524;8.684;2024-02-23T09:03:54;97456.03;;;7.63;79.92
41202;BME280;26936;50.524;8.684;2024-02-23T09:06:20;97448.00;;;7.56;80.47
41202;BME280;26936;50.524;8.684;2024-02-23T09:08:45;97440.38;;;7.56;81.06
41202;BME280;26936;50.524;8.684;2024-02-23T09:11:10;97441.03;;;7.51;81.02
41202;BME280;26936;50.524;8.684;2024-02-23T09:13:38;97439.88;;;7.58;80.24
41202;BME280;26936;50.524;8.684;2024-02-23T09:16:03;97427.16;;;7.57;80.50
41202;BME280;26936;50.524;8.684;2024-02-23T09:18:29;97435.16;;;7.64;81.60
41202;BME280;26936;50.524;8.684;2024-02-23T09:20:55;97433.84;;;7.74;80.71
41202;BME280;26936;50.524;8.684;2024-02-23T09:23:20;97432.47;;;7.69;80.22
41202;BME280;26936;50.524;8.684;2024-02-23T09:25:45;97437.50;;;7.80;79.47
41202;BME280;26936;50.524;8.684;2024-02-23T09:28:11;97436.16;;;7.90;78.72
41202;BME280;26936;50.524;8.684;2024-02-23T09:30:36;97433.47;;;7.95;78.94
41202;BME280;26936;50.524;8.684;2024-02-23T09:33:02;97449.81;;;7.97;78.12
41202;BME280;26936;50.524;8.684;2024-02-23T09:35:27;97442.28;;;8.03;78.23
41202;BME280;26936;50.524;8.684;2024-02-23T09:37:52;97448.16;;;8.05;78.39
41202;BME280;26936;50.524;8.684;2024-02-23T09:40:17;97451.94;;;8.02;77.55
41202;BME280;26936;50.524;8.684;2024-02-23T09:42:43;97442.28;;;8.03;78.33
41202;BME280;26936;50.524;8.684;2024-02-23T09:45:13;97441.78;;;8.04;77.42
41202;BME280;26936;50.524;8.684;2024-02-23T09:47:40;97439.75;;;8.05;75.95
41202;BME280;26936;50.524;8.684;2024-02-23T09:50:05;97441.50;;;8.02;75.64
41202;BME280;26936;50.524;8.684;2024-02-23T09:52:32;97430.31;;;8.02;76.25
41202;BME280;26936;50.524;8.684;2024-02-23T09:54:57;97425.06;;;8.10;76.34
41202;BME280;26936;50.524;8.684;2024-02-23T09:57:23;97436.00;;;8.08;75.92
41202;BME280;26936;50.524;8.684;2024-02-23T09:59:48;97427.88;;;8.10;74.52
41202;BME280;26936;50.524;8.684;2024-02-23T10:02:16;97425.06;;;8.10;74.69
41202;BME280;26936;50.524;8.684;2024-02-23T10:04:42;97425.38;;;7.97;72.91
41202;BME280;26936;50.524;8.684;2024-02-23T10:07:09;97423.81;;;7.96;74.16
41202;BME280;26936;50.524;8.684;2024-02-23T10:09:34;97416.66;;;8.10;73.86
41202;BME280;26936;50.524;8.684;2024-02-23T10:12:01;97410.28;;;8.09;74.45
41202;BME280;26936;50.524;8.684;2024-02-23T10:14:26;97410.69;;;8.02;73.53
41202;BME280;26936;50.524;8.684;2024-02-23T10:16:51;97411.91;;;8.01;72.86
41202;BME280;26936;50.524;8.684;2024-02-23T10:19:19;97421.00;;;7.96;72.79
41202;BME280;26936;50.524;8.684;2024-02-23T10:21:45;97436.00;;;8.08;72.39
41202;BME280;26936;50.524;8.684;2024-02-23T10:24:10;97432.13;;;8.05;71.93
41202;BME280;26936;50.524;8.684;2024-02-23T10:26:36;97436.00;;;8.08;72.05
41202;BME280;26936;50.524;8.684;2024-02-23T10:29:01;97437.16;;;8.16;71.98
41202;BME280;26936;50.524;8.684;2024-02-23T10:31:28;97428.38;;;8.08;70.58
41202;BME280;26936;50.524;8.684;2024-02-23T10:33:54;97438.31;;;8.09;71.49
41202;BME280;26936;50.524;8.684;2024-02-23T10:36:21;97446.81;;;8.15;70.28
41202;BME280;26936;50.524;8.684;2024-02-23T10:38:48;97448.56;;;8.12;71.58
41202;BME280;26936;50.524;8.684;2024-02-23T10:41:17;97430.00;;;8.15;71.94
41202;BME280;26936;50.524;8.684;2024-02-23T10:43:47;97445.84;;;8.18;71.07
41202;BME280;26936;50.524;8.684;2024-02-23T10:46:12;97427.56;;;8.22;72.18
41202;BME280;26936;50.524;8.684;2024-02-23T10:48:42;97434.38;;;8.31;74.02
41202;BME280;26936;50.524;8.684;2024-02-23T10:51:10;97432.03;;;8.14;72.99
41202;BME280;26936;50.524;8.684;2024-02-23T10:53:36;97425.59;;;8.23;71.74
41202;BME280;26936;50.524;8.684;2024-02-23T10:56:03;97442.50;;;8.29;69.95
41202;BME280;26936;50.524;8.684;2024-02-23T10:58:29;97430.22;;;8.26;71.17
41202;BME280;26936;50.524;8.684;2024-02-23T11:01:00;97425.56;;;8.38;70.20
41202;BME280;26936;50.524;8.684;2024-02-23T11:03:28;97423.84;;;8.40;68.69
41202;BME280;26936;50.524;8.684;2024-02-23T11:05:54;97418.91;;;8.50;68.20
41202;BME280;26936;50.524;8.684;2024-02-23T11:08:19;97425.69;;;8.43;67.83
41202;BME280;26936;50.524;8.684;2024-02-23T11:10:51;97412.88;;;8.42;66.22
41202;BME280;26936;50.524;8.684;2024-02-23T11:13:36;97402.78;;;8.65;65.48
41202;BME280;26936;50.524;8.684;2024-02-23T11:16:03;97405.38;;;8.68;64.82
41202;BME280;26936;50.524;8.684;2024-02-23T11:18:29;97405.56;;;8.79;67.49
41202;BME280;26936;50.524;8.684;2024-02-23T11:21:04;97407.34;;;8.62;69.35
41202;BME280;26936;50.524;8.684;2024-02-23T11:23:43;97397.72;;;8.83;68.89
41202;BME280;26936;50.524;8.684;2024-02-23T11:26:12;97392.44;;;8.91;69.32
41202;BME280;26936;50.524;8.684;2024-02-23T11:28:48;97384.66;;;8.80;70.78
41202;BME280;26936;50.524;8.684;2024-02-23T11:31:15;97375.06;;;8.87;68.29
41202;BME280;26936;50.524;8.684;2024-02-23T11:33:50;97381.22;;;8.71;67.14
41202;BME280;26936;50.524;8.684;2024-02-23T11:36:32;97380.53;;;8.96;67.59
41202;BME280;26936;50.524;8.684;2024-02-23T11:38:58;97376.63;;;8.73;66.61
41202;BME280;26936;50.524;8.684;2024-02-23T11:41:25;97378.09;;;8.69;66.26
41202;BME280;26936;50.524;8.684;2024-02-23T11:43:51;97373.22;;;8.84;67.55
41202;BME280;26936;50.524;8.684;2024-02-23T11:46:17;97384.47;;;8.84;66.46
41202;BME280;26936;50.524;8.684;2024-02-23T11:48:43;97386.22;;;9.01;67.63
41202;BME280;26936;50.524;8.684;2024-02-23T11:51:09;97378.50;;;8.96;68.00
41202;BME280;26936;50.524;8.684;2024-02-23T11:53:38;97391.22;;;9.12;67.65
41202;BME280;26936;50.524;8.684;2024-02-23T11:56:05;97396.59;;;9.15;67.16
41202;BME280;26936;50.524;8.684;2024-02-23T11:58:30;97400.34;;;9.07;68.51
41202;BME280;26936;50.524;8.684;2024-02-23T12:00:56;97402.88;;;9.05;70.33
41202;BME280;26936;50.524;8.684;2024-02-23T12:03:22;97398.09;;;9.11;70.24
41202;BME280;26936;50.524;8.684;2024-02-23T12:05:49;97401.47;;;9.15;70.32
41202;BME280;26936;50.524;8.684;2024-02-23T12:08:15;97408.63;;;9.36;71.37
41202;BME280;26936;50.524;8.684;2024-02-23T12:10:40;97399.50;;;9.21;68.47
41202;BME280;26936;50.524;8.684;2024-02-23T12:13:06;97408.06;;;9.32;67.81
41202;BME280;26936;50.524;8.684;2024-02-23T12:15:31;97409.81;;;9.29;67.70
41202;BME280;26936;50.524;8.684;2024-02-23T12:17:58;97412.25;;;9.22;67.93
41202;BME280;26936;50.524;8.684;2024-02-23T12:20:25;97408.63;;;9.16;66.91
41202;BME280;26936;50.524;8.684;2024-02-23T12:22:50;97407.44;;;9.22;66.38
41202;BME280;26936;50.524;8.684;2024-02-23T12:25:15;97414.38;;;9.27;66.33
41202;BME280;26936;50.524;8.684;2024-02-23T12:27:41;97404.97;;;9.30;66.87
41202;BME280;26936;50.524;8.684;2024-02-23T12:30:15;97408.34;;;9.34;66.13
41202;BME280;26936;50.524;8.684;2024-02-23T12:32:42;97397.91;;;9.34;65.52
41202;BME280;26936;50.524;8.684;2024-02-23T12:35:10;97399.00;;;9.22;65.33
41202;BME280;26936;50.524;8.684;2024-02-23T12:37:36;97394.88;;;9.18;65.19
41202;BME280;26936;50.524;8.684;2024-02-23T12:40:02;97396.41;;;9.19;65.03
41202;BME280;26936;50.524;8.684;2024-02-23T12:42:27;97394.03;;;9.12;64.89
41202;BME280;26936;50.524;8.684;2024-02-23T12:44:53;97392.41;;;9.05;67.12
41202;BME280;26936;50.524;8.684;2024-02-23T12:47:18;97400.78;;;9.20;67.29
41202;BME280;26936;50.524;8.684;2024-02-23T12:49:43;97396.59;;;9.15;65.64
41202;BME280;26936;50.524;8.684;2024-02-23T12:52:09;97400.25;;;9.01;65.13
41202;BME280;26936;50.524;8.684;2024-02-23T12:54:34;97389.16;;;9.12;64.30
41202;BME280;26936;50.524;8.684;2024-02-23T12:56:59;97395.41;;;9.22;65.89
41202;BME280;26936;50.524;8.684;2024-02-23T12:59:24;97385.94;;;9.19;64.85
41202;BME280;26936;50.524;8.684;2024-02-23T13:01:50;97388.84;;;9.25;65.57
41202;BME280;26936;50.524;8.684;2024-02-23T13:04:15;97391.69;;;9.30;64.99